sensor_id;sensor_type;location;lat;lon;timestamp;P1;durP1;ratioP1;P2;durP2;ratioP2
23159;SDS011;11748;50.844;4.396;2024-02-14T00:00:11;5.53;;;3.92;;
23159;SDS011;11748;50.844;4.396;2024-02-14T00:02:41;6.53;;;4.63;;
23159;SDS011;11748;50.844;4.396;2024-02-14T00:05:09;6.50;;;4.22;;
23159;SDS011;11748;50.844;4.396;2024-02-14T00:07:38;6.72;;;3.78;;
23159;SDS011;11748;50.844;4.396;2024-02-14T00:10:07;6.80;;;3.72;;
23159;SDS011;11748;50.844;4.396;2024-02-14T00:12:35;9.25;;;3.80;;
23159;SDS011;11748;50.844;4.396;2024-02-14T00:15:02;7.38;;;3.90;;
23159;SDS011;11748;50.844;4.396;2024-02-14T00:17:31;7.70;;;3.55;;
23159;SDS011;11748;50.844;4.396;2024-02-14T00:20:02;5.32;;;3.40;;
23159;SDS011;11748;50.844;4.396;2024-02-14T00:22:30;4.88;;;3.50;;
23159;SDS011;11748;50.844;4.396;2024-02-14T00:24:59;6.07;;;3.55;;
23159;SDS011;11748;50.844;4.396;2024-02-14T00:27:27;8.20;;;3.60;;
23159;SDS011;11748;50.844;4.396;2024-02-14T00:29:56;6.30;;;3.25;;
23159;SDS011;11748;50.844;4.396;2024-02-14T00:32:23;8.57;;;4.53;;
23159;SDS011;11748;50.844;4.396;2024-02-14T00:34:49;5.53;;;3.88;;
23159;SDS011;11748;50.844;4.396;2024-02-14T00:37:16;7.55;;;3.80;;
23159;SDS011;11748;50.844;4.396;2024-02-14T00:39:42;6.35;;;3.60;;
23159;SDS011;11748;50.844;4.396;2024-02-14T00:42:08;4.55;;;3.42;;
23159;SDS011;11748;50.844;4.396;2024-02-14T00:44:34;6.95;;;4.03;;
23159;SDS011;11748;50.844;4.396;2024-02-14T00:47:02;6.07;;;3.35;;
23159;SDS011;11748;50.844;4.396;2024-02-14T00:49:28;4.97;;;3.50;;
23159;SDS011;11748;50.844;4.396;2024-02-14T00:51:54;4.28;;;3.08;;
23159;SDS011;11748;50.844;4.396;2024-02-14T00:54:21;8.40;;;3.38;;
23159;SDS011;11748;50.844;4.396;2024-02-14T00:56:47;5.57;;;3.55;;
23159;SDS011;11748;50.844;4.396;2024-02-14T00:59:15;4.90;;;3.33;;
23159;SDS011;11748;50.844;4.396;2024-02-14T01:01:41;6.10;;;3.70;;
23159;SDS011;11748;50.844;4.396;2024-02-14T01:04:09;6.82;;;3.58;;
23159;SDS011;11748;50.844;4.396;2024-02-14T01:06:35;6.22;;;3.60;;
23159;SDS011;11748;50.844;4.396;2024-02-14T01:09:00;6.70;;;4.03;;
23159;SDS011;11748;50.844;4.396;2024-02-14T01:11:26;9.95;;;4.05;;
23159;SDS011;11748;50.844;4.396;2024-02-14T01:13:52;6.03;;;4.30;;
23159;SDS011;11748;50.844;4.396;2024-02-14T01:16:17;5.32;;;4.07;;
23159;SDS011;11748;50.844;4.396;2024-02-14T01:18:43;6.43;;;3.55;;
23159;SDS011;11748;50.844;4.396;2024-02-14T01:21:09;5.78;;;3.88;;
23159;SDS011;11748;50.844;4.396;2024-02-14T01:23:34;7.88;;;4.30;;
23159;SDS011;11748;50.844;4.396;2024-02-14T01:26:00;6.68;;;4.10;;
23159;SDS011;11748;50.844;4.396;2024-02-14T01:28:27;8.57;;;4.78;;
23159;SDS011;11748;50.844;4.396;2024-02-14T01:30:52;8.93;;;4.40;;
23159;SDS011;11748;50.844;4.396;2024-02-14T01:33:19;8.48;;;4.40;;
23159;SDS011;11748;50.844;4.396;2024-02-14T01:35:47;7.20;;;4.20;;
23159;SDS011;11748;50.844;4.396;2024-02-14T01:38:13;8.18;;;4.40;;
23159;SDS011;11748;50.844;4.396;2024-02-14T01:40:41;9.68;;;4.95;;
23159;SDS011;11748;50.844;4.396;2024-02-14T01:43:09;10.15;;;4.93;;
23159;SDS011;11748;50.844;4.396;2024-02-14T01:45:35;9.18;;;4.75;;
23159;SDS011;11748;50.844;4.396;2024-02-14T01:48:01;7.25;;;5.30;;
23159;SDS011;11748;50.844;4.396;2024-02-14T01:50:27;7.97;;;4.72;;
23159;SDS011;11748;50.844;4.396;2024-02-14T01:52:55;7.78;;;4.95;;
23159;SDS011;11748;50.844;4.396;2024-02-14T01:55:22;9.27;;;4.82;;
23159;SDS011;11748;50.844;4.396;2024-02-14T01:57:49;7.90;;;4.53;;
23159;SDS011;11748;50.844;4.396;2024-02-14T02:00:14;9.90;;;5.35;;
23159;SDS011;11748;50.844;4.396;2024-02-14T02:02:43;7.78;;;5.13;;
23159;SDS011;11748;50.844;4.396;2024-02-14T02:05:09;11.10;;;5.28;;
23159;SDS011;11748;50.844;4.396;2024-02-14T02:07:35;10.68;;;5.30;;
23159;SDS011;11748;50.844;4.396;2024-02-14T02:10:05;12.38;;;5.88;;
23159;SDS011;11748;50.844;4.396;2024-02-14T02:12:31;10.10;;;4.85;;
23159;SDS011;11748;50.844;4.396;2024-02-14T02:14:57;10.95;;;5.68;;
23159;SDS011;11748;50.844;4.396;2024-02-14T02:17:23;7.70;;;5.45;;
23159;SDS011;11748;50.844;4.396;2024-02-14T02:19:49;10.15;;;5.93;;
23159;SDS011;11748;50.844;4.396;2024-02-14T02:22:15;8.35;;;6.00;;
23159;SDS011;11748;50.844;4.396;2024-02-14T02:24:40;9.57;;;5.53;;
23159;SDS011;11748;50.844;4.396;2024-02-14T02:27:07;10.68;;;5.72;;
23159;SDS011;11748;50.844;4.396;2024-02-14T02:29:33;10.57;;;5.45;;
23159;SDS011;11748;50.844;4.396;2024-02-14T02:31:58;10.23;;;5.30;;
23159;SDS011;11748;50.844;4.396;2024-02-14T02:34:24;10.25;;;6.15;;
23159;SDS011;11748;50.844;4.396;2024-02-14T02:36:51;9.63;;;5.70;;
23159;SDS011;11748;50.844;4.396;2024-02-14T02:39:16;9.35;;;5.78;;
23159;SDS011;11748;50.844;4.396;2024-02-14T02:41:42;8.43;;;6.00;;
23159;SDS011;11748;50.844;4.396;2024-02-14T02:44:09;9.02;;;5.72;;
23159;SDS011;11748;50.844;4.396;2024-02-14T02:46:36;13.00;;;5.97;;
23159;SDS011;11748;50.844;4.396;2024-02-14T02:49:01;8.13;;;5.82;;
23159;SDS011;11748;50.844;4.396;2024-02-14T02:51:27;13.25;;;5.72;;
23159;SDS011;11748;50.844;4.396;2024-02-14T02:53:54;10.40;;;5.57;;
23159;SDS011;11748;50.844;4.396;2024-02-14T02:56:20;12.02;;;6.55;;
23159;SDS011;11748;50.844;4.396;2024-02-14T02:58:47;7.80;;;5.97;;
23159;SDS011;11748;50.844;4.396;2024-02-14T03:01:13;9.18;;;5.95;;
23159;SDS011;11748;50.844;4.396;2024-02-14T03:03:39;11.05;;;6.10;;
23159;SDS011;11748;50.844;4.396;2024-02-14T03:06:06;12.07;;;6.07;;
23159;SDS011;11748;50.844;4.396;2024-02-14T03:08:32;10.88;;;6.38;;
23159;SDS011;11748;50.844;4.396;2024-02-14T03:11:04;12.52;;;5.93;;
23159;SDS011;11748;50.844;4.396;2024-02-14T03:13:30;12.25;;;6.63;;
23159;SDS011;11748;50.844;4.396;2024-02-14T03:15:56;11.30;;;6.03;;
23159;SDS011;11748;50.844;4.396;2024-02-14T03:18:23;10.32;;;6.30;;
23159;SDS011;11748;50.844;4.396;2024-02-14T03:20:49;11.80;;;6.43;;
23159;SDS011;11748;50.844;4.396;2024-02-14T03:23:15;11.32;;;6.47;;
23159;SDS011;11748;50.844;4.396;2024-02-14T03:25:42;11.77;;;6.63;;
23159;SDS011;11748;50.844;4.396;2024-02-14T03:28:08;13.05;;;7.32;;
23159;SDS011;11748;50.844;4.396;2024-02-14T03:30:36;13.40;;;6.95;;
23159;SDS011;11748;50.844;4.396;2024-02-14T03:33:02;11.63;;;7.13;;
23159;SDS011;11748;50.844;4.396;2024-02-14T03:35:28;13.77;;;7.68;;
23159;SDS011;11748;50.844;4.396;2024-02-14T03:37:54;11.23;;;6.80;;
23159;SDS011;11748;50.844;4.396;2024-02-14T03:40:19;14.48;;;7.82;;
23159;SDS011;11748;50.844;4.396;2024-02-14T03:42:45;12.80;;;7.20;;
23159;SDS011;11748;50.844;4.396;2024-02-14T03:45:11;14.18;;;7.68;;
23159;SDS011;11748;50.844;4.396;2024-02-14T03:47:37;10.82;;;6.93;;
23159;SDS011;11748;50.844;4.396;2024-02-14T03:50:07;13.00;;;7.68;;
23159;SDS011;11748;50.844;4.396;2024-02-14T03:55:05;14.90;;;7.45;;
23159;SDS011;11748;50.844;4.396;2024-02-14T03:57:30;13.07;;;7.32;;
23159;SDS011;11748;50.844;4.396;2024-02-14T03:59:59;14.65;;;7.85;;
23159;SDS011;11748;50.844;4.396;2024-02-14T04:02:28;12.23;;;7.47;;
23159;SDS011;11748;50.844;4.396;2024-02-14T04:04:54;15.25;;;8.10;;
23159;SDS011;11748;50.844;4.396;2024-02-14T04:07:20;16.17;;;7.85;;
23159;SDS011;11748;50.844;4.396;2024-02-14T04:09:47;17.20;;;8.38;;
23159;SDS011;11748;50.844;4.396;2024-02-14T04:12:12;15.93;;;8.68;;
23159;SDS011;11748;50.844;4.396;2024-02-14T04:14:39;15.82;;;8.52;;
23159;SDS011;11748;50.844;4.396;2024-02-14T04:17:05;14.95;;;8.70;;
23159;SDS011;11748;50.844;4.396;2024-02-14T04:19:39;16.60;;;9.05;;
23159;SDS011;11748;50.844;4.396;2024-02-14T04:22:04;15.63;;;8.30;;
23159;SDS011;11748;50.844;4.396;2024-02-14T04:24:38;17.05;;;8.57;;
23159;SDS011;11748;50.844;4.396;2024-02-14T04:27:04;18.38;;;10.23;;
23159;SDS011;11748;50.844;4.396;2024-02-14T04:29:30;16.75;;;9.43;;
23159;SDS011;11748;50.844;4.396;2024-02-14T04:31:58;16.88;;;9.60;;
23159;SDS011;11748;50.844;4.396;2024-02-14T04:34:27;19.27;;;10.15;;
23159;SDS011;11748;50.844;4.396;2024-02-14T04:36:53;20.65;;;9.82;;
23159;SDS011;11748;50.844;4.396;2024-02-14T04:39:19;18.33;;;10.52;;
23159;SDS011;11748;50.844;4.396;2024-02-14T04:41:44;17.55;;;9.32;;
23159;SDS011;11748;50.844;4.396;2024-02-14T04:44:10;16.52;;;10.02;;
23159;SDS011;11748;50.844;4.396;2024-02-14T04:46:35;16.88;;;9.52;;
23159;SDS011;11748;50.844;4.396;2024-02-14T04:49:03;17.77;;;9.07;;
23159;SDS011;11748;50.844;4.396;2024-02-14T04:51:31;14.90;;;9.05;;
23159;SDS011;11748;50.844;4.396;2024-02-14T04:53:57;19.08;;;9.80;;
23159;SDS011;11748;50.844;4.396;2024-02-14T04:56:26;15.40;;;9.27;;
23159;SDS011;11748;50.844;4.396;2024-02-14T04:58:52;15.00;;;9.38;;
23159;SDS011;11748;50.844;4.396;2024-02-14T05:01:18;16.05;;;9.18;;
23159;SDS011;11748;50.844;4.396;2024-02-14T05:03:44;14.80;;;9.23;;
23159;SDS011;11748;50.844;4.396;2024-02-14T05:06:10;14.93;;;8.90;;
23159;SDS011;11748;50.844;4.396;2024-02-14T05:08:35;18.27;;;8.98;;
23159;SDS011;11748;50.844;4.396;2024-02-14T05:11:17;14.80;;;8.75;;
23159;SDS011;11748;50.844;4.396;2024-02-14T05:13:43;17.25;;;8.98;;
23159;SDS011;11748;50.844;4.396;2024-02-14T05:16:10;16.48;;;9.70;;
23159;SDS011;11748;50.844;4.396;2024-02-14T05:18:36;15.80;;;9.25;;
23159;SDS011;11748;50.844;4.396;2024-02-14T05:21:05;16.80;;;9.05;;
23159;SDS011;11748;50.844;4.396;2024-02-14T05:23:32;16.48;;;9.75;;
23159;SDS011;11748;50.844;4.396;2024-02-14T05:25:58;16.58;;;9.25;;
23159;SDS011;11748;50.844;4.396;2024-02-14T05:28:24;14.27;;;9.82;;
23159;SDS011;11748;50.844;4.396;2024-02-14T05:30:51;16.52;;;10.48;;
23159;SDS011;11748;50.844;4.396;2024-02-14T05:33:16;14.30;;;9.93;;
23159;SDS011;11748;50.844;4.396;2024-02-14T05:35:46;16.75;;;10.07;;
23159;SDS011;11748;50.844;4.396;2024-02-14T05:38:15;15.77;;;9.77;;
23159;SDS011;11748;50.844;4.396;2024-02-14T05:40:41;15.02;;;9.85;;
23159;SDS011;11748;50.844;4.396;2024-02-14T05:43:09;19.10;;;10.30;;
23159;SDS011;11748;50.844;4.396;2024-02-14T05:45:35;15.35;;;9.43;;
23159;SDS011;11748;50.844;4.396;2024-02-14T05:48:01;16.67;;;9.70;;
23159;SDS011;11748;50.844;4.396;2024-02-14T05:50:27;17.85;;;10.85;;
23159;SDS011;11748;50.844;4.396;2024-02-14T05:52:53;17.00;;;9.93;;
23159;SDS011;11748;50.844;4.396;2024-02-14T05:55:18;18.00;;;10.48;;
23159;SDS011;11748;50.844;4.396;2024-02-14T05:57:44;16.25;;;9.98;;
23159;SDS011;11748;50.844;4.396;2024-02-14T06:00:10;17.77;;;10.10;;
23159;SDS011;11748;50.844;4.396;2024-02-14T06:02:37;20.25;;;10.15;;
23159;SDS011;11748;50.844;4.396;2024-02-14T06:05:05;18.98;;;10.43;;
23159;SDS011;11748;50.844;4.396;2024-02-14T06:07:35;21.45;;;9.77;;
23159;SDS011;11748;50.844;4.396;2024-02-14T06:10:01;15.48;;;10.02;;
23159;SDS011;11748;50.844;4.396;2024-02-14T06:12:27;18.17;;;10.27;;
23159;SDS011;11748;50.844;4.396;2024-02-14T06:14:52;15.93;;;10.45;;
23159;SDS011;11748;50.844;4.396;2024-02-14T06:17:18;20.48;;;9.88;;
23159;SDS011;11748;50.844;4.396;2024-02-14T06:19:44;19.75;;;10.88;;
23159;SDS011;11748;50.844;4.396;2024-02-14T06:22:09;15.63;;;9.55;;
23159;SDS011;11748;50.844;4.396;2024-02-14T06:24:36;17.63;;;9.88;;
23159;SDS011;11748;50.844;4.396;2024-02-14T06:27:02;15.60;;;9.50;;
23159;SDS011;11748;50.844;4.396;2024-02-14T06:29:27;15.98;;;9.48;;
23159;SDS011;11748;50.844;4.396;2024-02-14T06:31:53;18.25;;;9.32;;
23159;SDS011;11748;50.844;4.396;2024-02-14T06:34:19;16.70;;;9.35;;
23159;SDS011;11748;50.844;4.396;2024-02-14T06:36:46;22.38;;;9.40;;
23159;SDS011;11748;50.844;4.396;2024-02-14T06:39:13;18.80;;;9.45;;
23159;SDS011;11748;50.844;4.396;2024-02-14T06:41:38;19.40;;;8.60;;
23159;SDS011;11748;50.844;4.396;2024-02-14T06:44:05;16.52;;;9.05;;
23159;SDS011;11748;50.844;4.396;2024-02-14T06:46:31;16.67;;;9.40;;
23159;SDS011;11748;50.844;4.396;2024-02-14T06:48:56;17.38;;;8.93;;
23159;SDS011;11748;50.844;4.396;2024-02-14T06:51:22;15.13;;;8.95;;
23159;SDS011;11748;50.844;4.396;2024-02-14T06:53:49;17.77;;;8.70;;
23159;SDS011;11748;50.844;4.396;2024-02-14T06:56:15;17.83;;;8.80;;
23159;SDS011;11748;50.844;4.396;2024-02-14T06:58:41;20.33;;;9.38;;
23159;SDS011;11748;50.844;4.396;2024-02-14T07:01:07;23.27;;;10.05;;
23159;SDS011;11748;50.844;4.396;2024-02-14T07:03:33;17.73;;;8.93;;
23159;SDS011;11748;50.844;4.396;2024-02-14T07:06:02;15.80;;;9.63;;
23159;SDS011;11748;50.844;4.396;2024-02-14T07:08:27;17.13;;;9.60;;
23159;SDS011;11748;50.844;4.396;2024-02-14T07:10:56;16.35;;;9.60;;
23159;SDS011;11748;50.844;4.396;2024-02-14T07:13:22;15.13;;;9.20;;
23159;SDS011;11748;50.844;4.396;2024-02-14T07:15:48;16.17;;;9.65;;
23159;SDS011;11748;50.844;4.396;2024-02-14T07:18:13;17.00;;;9.93;;
23159;SDS011;11748;50.844;4.396;2024-02-14T07:20:39;15.30;;;9.32;;
23159;SDS011;11748;50.844;4.396;2024-02-14T07:23:05;17.13;;;8.90;;
23159;SDS011;11748;50.844;4.396;2024-02-14T07:25:31;13.15;;;8.43;;
23159;SDS011;11748;50.844;4.396;2024-02-14T07:27:56;19.90;;;9.45;;
23159;SDS011;11748;50.844;4.396;2024-02-14T07:30:22;17.52;;;8.60;;
23159;SDS011;11748;50.844;4.396;2024-02-14T07:32:47;19.60;;;9.55;;
23159;SDS011;11748;50.844;4.396;2024-02-14T07:35:13;18.85;;;8.88;;
23159;SDS011;11748;50.844;4.396;2024-02-14T07:37:39;16.90;;;8.88;;
23159;SDS011;11748;50.844;4.396;2024-02-14T07:40:07;14.25;;;8.85;;
23159;SDS011;11748;50.844;4.396;2024-02-14T07:42:33;16.60;;;9.45;;
23159;SDS011;11748;50.844;4.396;2024-02-14T07:44:59;15.60;;;9.00;;
23159;SDS011;11748;50.844;4.396;2024-02-14T07:47:24;17.73;;;9.27;;
23159;SDS011;11748;50.844;4.396;2024-02-14T07:49:52;18.40;;;9.15;;
23159;SDS011;11748;50.844;4.396;2024-02-14T07:52:18;13.93;;;9.05;;
23159;SDS011;11748;50.844;4.396;2024-02-14T07:54:43;19.08;;;9.40;;
23159;SDS011;11748;50.844;4.396;2024-02-14T07:57:09;15.93;;;9.43;;
23159;SDS011;11748;50.844;4.396;2024-02-14T07:59:35;18.60;;;9.43;;
23159;SDS011;11748;50.844;4.396;2024-02-14T08:02:00;14.73;;;9.05;;
23159;SDS011;11748;50.844;4.396;2024-02-14T08:04:26;16.27;;;8.80;;
23159;SDS011;11748;50.844;4.396;2024-02-14T08:06:52;13.48;;;8.40;;
23159;SDS011;11748;50.844;4.396;2024-02-14T08:09:17;13.13;;;8.45;;
23159;SDS011;11748;50.844;4.396;2024-02-14T08:11:43;15.02;;;8.02;;
23159;SDS011;11748;50.844;4.396;2024-02-14T08:14:09;14.48;;;8.32;;
23159;SDS011;11748;50.844;4.396;2024-02-14T08:16:34;15.50;;;8.40;;
23159;SDS011;11748;50.844;4.396;2024-02-14T08:19:01;15.52;;;9.20;;
23159;SDS011;11748;50.844;4.396;2024-02-14T08:21:27;13.23;;;8.52;;
23159;SDS011;11748;50.844;4.396;2024-02-14T08:23:53;15.40;;;9.50;;
23159;SDS011;11748;50.844;4.396;2024-02-14T08:26:21;15.48;;;8.85;;
23159;SDS011;11748;50.844;4.396;2024-02-14T08:28:48;17.13;;;9.00;;
23159;SDS011;11748;50.844;4.396;2024-02-14T08:31:15;15.32;;;9.27;;
23159;SDS011;11748;50.844;4.396;2024-02-14T08:33:41;18.58;;;10.30;;
23159;SDS011;11748;50.844;4.396;2024-02-14T08:36:06;17.27;;;10.55;;
23159;SDS011;11748;50.844;4.396;2024-02-14T08:38:35;16.67;;;9.35;;
23159;SDS011;11748;50.844;4.396;2024-02-14T08:41:02;18.05;;;9.63;;
23159;SDS011;11748;50.844;4.396;2024-02-14T08:43:29;14.85;;;10.38;;
23159;SDS011;11748;50.844;4.396;2024-02-14T08:45:55;17.88;;;11.25;;
23159;SDS011;11748;50.844;4.396;2024-02-14T08:48:22;17.13;;;10.35;;
23159;SDS011;11748;50.844;4.396;2024-02-14T08:50:48;18.60;;;10.48;;
23159;SDS011;11748;50.844;4.396;2024-02-14T08:53:15;20.30;;;10.77;;
23159;SDS011;11748;50.844;4.396;2024-02-14T08:55:41;17.70;;;10.73;;
23159;SDS011;11748;50.844;4.396;2024-02-14T08:58:07;15.13;;;10.70;;
23159;SDS011;11748;50.844;4.396;2024-02-14T09:00:35;21.50;;;11.18;;
23159;SDS011;11748;50.844;4.396;2024-02-14T09:03:01;18.88;;;11.57;;
23159;SDS011;11748;50.844;4.396;2024-02-14T09:05:28;18.83;;;11.52;;
23159;SDS011;11748;50.844;4.396;2024-02-14T09:07:54;18.70;;;12.20;;
23159;SDS011;11748;50.844;4.396;2024-02-14T09:10:20;17.88;;;11.00;;
23159;SDS011;11748;50.844;4.396;2024-02-14T09:12:47;20.27;;;10.82;;
23159;SDS011;11748;50.844;4.396;2024-02-14T09:15:13;16.02;;;10.80;;
23159;SDS011;11748;50.844;4.396;2024-02-14T09:17:39;17.40;;;11.32;;
23159;SDS011;11748;50.844;4.396;2024-02-14T09:20:08;19.67;;;10.70;;
23159;SDS011;11748;50.844;4.396;2024-02-14T09:22:38;17.58;;;11.20;;
23159;SDS011;11748;50.844;4.396;2024-02-14T09:25:06;15.73;;;9.68;;
23159;SDS011;11748;50.844;4.396;2024-02-14T09:27:34;18.40;;;11.13;;
23159;SDS011;11748;50.844;4.396;2024-02-14T09:30:04;17.27;;;10.27;;
23159;SDS011;11748;50.844;4.396;2024-02-14T09:32:31;15.70;;;9.40;;
23159;SDS011;11748;50.844;4.396;2024-02-14T09:34:57;15.52;;;9.90;;
23159;SDS011;11748;50.844;4.396;2024-02-14T09:37:24;13.50;;;9.25;;
23159;SDS011;11748;50.844;4.396;2024-02-14T09:39:49;17.05;;;9.52;;
23159;SDS011;11748;50.844;4.396;2024-02-14T09:42:16;15.10;;;9.07;;
23159;SDS011;11748;50.844;4.396;2024-02-14T09:44:45;11.20;;;8.60;;
23159;SDS011;11748;50.844;4.396;2024-02-14T09:47:11;15.77;;;8.80;;
23159;SDS011;11748;50.844;4.396;2024-02-14T09:49:38;13.57;;;8.55;;
23159;SDS011;11748;50.844;4.396;2024-02-14T09:52:06;12.40;;;8.85;;
23159;SDS011;11748;50.844;4.396;2024-02-14T09:54:36;11.40;;;7.85;;
23159;SDS011;11748;50.844;4.396;2024-02-14T09:57:04;11.88;;;8.27;;
23159;SDS011;11748;50.844;4.396;2024-02-14T09:59:30;12.43;;;8.05;;
23159;SDS011;11748;50.844;4.396;2024-02-14T10:01:57;13.05;;;8.13;;
23159;SDS011;11748;50.844;4.396;2024-02-14T10:04:23;12.68;;;7.90;;
23159;SDS011;11748;50.844;4.396;2024-02-14T10:06:50;11.68;;;7.53;;
23159;SDS011;11748;50.844;4.396;2024-02-14T10:09:22;12.52;;;7.80;;
23159;SDS011;11748;50.844;4.396;2024-02-14T10:11:51;9.45;;;7.78;;
23159;SDS011;11748;50.844;4.396;2024-02-14T10:14:18;11.18;;;7.60;;
23159;SDS011;11748;50.844;4.396;2024-02-14T10:16:43;10.07;;;7.40;;
23159;SDS011;11748;50.844;4.396;2024-02-14T10:19:19;9.98;;;7.00;;
23159;SDS011;11748;50.844;4.396;2024-02-14T10:22:00;8.48;;;6.68;;
23159;SDS011;11748;50.844;4.396;2024-02-14T10:26:56;7.43;;;5.78;;
23159;SDS011;11748;50.844;4.396;2024-02-14T10:29:28;10.32;;;6.07;;
23159;SDS011;11748;50.844;4.396;2024-02-14T10:31:54;9.27;;;5.70;;
23159;SDS011;11748;50.844;4.396;2024-02-14T10:34:24;6.93;;;5.07;;
23159;SDS011;11748;50.844;4.396;2024-02-14T10:36:52;6.32;;;4.88;;
23159;SDS011;11748;50.844;4.396;2024-02-14T10:39:20;8.02;;;5.00;;
23159;SDS011;11748;50.844;4.396;2024-02-14T10:41:47;5.65;;;4.32;;
23159;SDS011;11748;50.844;4.396;2024-02-14T10:44:15;6.70;;;5.05;;
23159;SDS011;11748;50.844;4.396;2024-02-14T10:46:41;7.95;;;4.75;;
23159;SDS011;11748;50.844;4.396;2024-02-14T10:49:09;4.68;;;3.88;;
23159;SDS011;11748;50.844;4.396;2024-02-14T10:51:36;4.93;;;3.33;;
23159;SDS011;11748;50.844;4.396;2024-02-14T10:54:04;5.43;;;4.00;;
23159;SDS011;11748;50.844;4.396;2024-02-14T10:56:34;4.85;;;4.35;;
23159;SDS011;11748;50.844;4.396;2024-02-14T10:59:03;6.32;;;3.72;;
23159;SDS011;11748;50.844;4.396;2024-02-14T11:01:30;5.85;;;4.13;;
23159;SDS011;11748;50.844;4.396;2024-02-14T11:03:58;5.85;;;3.80;;
23159;SDS011;11748;50.844;4.396;2024-02-14T11:06:25;3.90;;;3.50;;
23159;SDS011;11748;50.844;4.396;2024-02-14T11:09:03;5.45;;;4.13;;
23159;SDS011;11748;50.844;4.396;2024-02-14T11:11:35;5.63;;;3.90;;
23159;SDS011;11748;50.844;4.396;2024-02-14T11:14:02;5.53;;;3.78;;
23159;SDS011;11748;50.844;4.396;2024-02-14T11:16:30;4.53;;;3.45;;
23159;SDS011;11748;50.844;4.396;2024-02-14T11:19:10;8.15;;;4.00;;
23159;SDS011;11748;50.844;4.396;2024-02-14T11:21:41;6.25;;;4.70;;
23159;SDS011;11748;50.844;4.396;2024-02-14T11:24:15;6.65;;;3.88;;
23159;SDS011;11748;50.844;4.396;2024-02-14T11:26:50;6.82;;;4.60;;
23159;SDS011;11748;50.844;4.396;2024-02-14T11:29:17;5.22;;;4.07;;
23159;SDS011;11748;50.844;4.396;2024-02-14T11:31:44;5.68;;;4.45;;
23159;SDS011;11748;50.844;4.396;2024-02-14T11:34:14;6.07;;;4.20;;
23159;SDS011;11748;50.844;4.396;2024-02-14T11:36:44;5.43;;;4.15;;
23159;SDS011;11748;50.844;4.396;2024-02-14T11:39:11;5.63;;;4.35;;
23159;SDS011;11748;50.844;4.396;2024-02-14T11:41:39;7.05;;;4.22;;
23159;SDS011;11748;50.844;4.396;2024-02-14T11:44:07;7.80;;;5.90;;
23159;SDS011;11748;50.844;4.396;2024-02-14T11:46:34;7.53;;;4.35;;
23159;SDS011;11748;50.844;4.396;2024-02-14T11:49:01;9.25;;;4.85;;
23159;SDS011;11748;50.844;4.396;2024-02-14T11:51:28;8.82;;;5.32;;
23159;SDS011;11748;50.844;4.396;2024-02-14T11:53:55;9.65;;;5.10;;
23159;SDS011;11748;50.844;4.396;2024-02-14T11:56:22;8.38;;;5.47;;
23159;SDS011;11748;50.844;4.396;2024-02-14T11:58:51;9.00;;;5.40;;
23159;SDS011;11748;50.844;4.396;2024-02-14T12:01:18;11.65;;;5.10;;
23159;SDS011;11748;50.844;4.396;2024-02-14T12:03:44;12.40;;;5.57;;
23159;SDS011;11748;50.844;4.396;2024-02-14T12:06:11;9.77;;;5.20;;
23159;SDS011;11748;50.844;4.396;2024-02-14T12:08:37;9.73;;;5.88;;
23159;SDS011;11748;50.844;4.396;2024-02-14T12:11:03;9.05;;;5.57;;
23159;SDS011;11748;50.844;4.396;2024-02-14T12:13:30;12.70;;;5.30;;
23159;SDS011;11748;50.844;4.396;2024-02-14T12:16:02;9.55;;;5.28;;
23159;SDS011;11748;50.844;4.396;2024-02-14T12:18:30;10.13;;;5.22;;
23159;SDS011;11748;50.844;4.396;2024-02-14T12:21:06;9.20;;;5.90;;
23159;SDS011;11748;50.844;4.396;2024-02-14T12:23:33;7.47;;;5.00;;
23159;SDS011;11748;50.844;4.396;2024-02-14T12:26:02;11.60;;;5.38;;
23159;SDS011;11748;50.844;4.396;2024-02-14T12:28:29;13.07;;;6.15;;
23159;SDS011;11748;50.844;4.396;2024-02-14T12:30:56;11.07;;;5.90;;
23159;SDS011;11748;50.844;4.396;2024-02-14T12:33:23;10.52;;;5.50;;
23159;SDS011;11748;50.844;4.396;2024-02-14T12:35:50;10.88;;;5.72;;
23159;SDS011;11748;50.844;4.396;2024-02-14T12:38:18;11.68;;;5.93;;
23159;SDS011;11748;50.844;4.396;2024-02-14T12:40:45;10.63;;;5.80;;
23159;SDS011;11748;50.844;4.396;2024-02-14T12:43:11;10.20;;;5.95;;
23159;SDS011;11748;50.844;4.396;2024-02-14T12:45:38;13.32;;;6.00;;
23159;SDS011;11748;50.844;4.396;2024-02-14T12:48:04;8.65;;;5.18;;
23159;SDS011;11748;50.844;4.396;2024-02-14T12:50:31;9.20;;;5.35;;
23159;SDS011;11748;50.844;4.396;2024-02-14T12:52:57;10.57;;;5.72;;
23159;SDS011;11748;50.844;4.396;2024-02-14T12:55:23;7.82;;;5.00;;
23159;SDS011;11748;50.844;4.396;2024-02-14T12:57:51;10.73;;;5.00;;
23159;SDS011;11748;50.844;4.396;2024-02-14T13:00:17;8.88;;;5.40;;
23159;SDS011;11748;50.844;4.396;2024-02-14T13:02:43;9.27;;;4.95;;
23159;SDS011;11748;50.844;4.396;2024-02-14T13:05:09;14.52;;;6.32;;
23159;SDS011;11748;50.844;4.396;2024-02-14T13:07:34;8.60;;;5.55;;
23159;SDS011;11748;50.844;4.396;2024-02-14T13:10:00;7.88;;;4.20;;
23159;SDS011;11748;50.844;4.396;2024-02-14T13:12:28;9.45;;;5.07;;
23159;SDS011;11748;50.844;4.396;2024-02-14T13:14:54;8.05;;;4.95;;
23159;SDS011;11748;50.844;4.396;2024-02-14T13:17:21;7.43;;;4.38;;
23159;SDS011;11748;50.844;4.396;2024-02-14T13:19:49;7.07;;;4.30;;
23159;SDS011;11748;50.844;4.396;2024-02-14T13:22:15;6.68;;;4.07;;
23159;SDS011;11748;50.844;4.396;2024-02-14T13:24:41;5.65;;;4.22;;
23159;SDS011;11748;50.844;4.396;2024-02-14T13:27:07;7.75;;;3.88;;
23159;SDS011;11748;50.844;4.396;2024-02-14T13:29:33;7.95;;;4.32;;
23159;SDS011;11748;50.844;4.396;2024-02-14T13:31:58;8.30;;;4.60;;
23159;SDS011;11748;50.844;4.396;2024-02-14T13:34:27;8.10;;;4.63;;
23159;SDS011;11748;50.844;4.396;2024-02-14T13:36:52;6.88;;;4.28;;
23159;SDS011;11748;50.844;4.396;2024-02-14T13:39:18;7.75;;;4.40;;
23159;SDS011;11748;50.844;4.396;2024-02-14T13:41:44;8.93;;;4.78;;
23159;SDS011;11748;50.844;4.396;2024-02-14T13:44:10;5.85;;;3.90;;
23159;SDS011;11748;50.844;4.396;2024-02-14T13:46:36;7.13;;;4.20;;
23159;SDS011;11748;50.844;4.396;2024-02-14T13:49:02;8.70;;;5.00;;
23159;SDS011;11748;50.844;4.396;2024-02-14T13:51:29;10.02;;;4.47;;
23159;SDS011;11748;50.844;4.396;2024-02-14T13:53:55;9.35;;;4.97;;
23159;SDS011;11748;50.844;4.396;2024-02-14T13:56:21;5.85;;;3.85;;
23159;SDS011;11748;50.844;4.396;2024-02-14T13:58:48;9.18;;;4.03;;
23159;SDS011;11748;50.844;4.396;2024-02-14T14:01:16;9.32;;;4.03;;
23159;SDS011;11748;50.844;4.396;2024-02-14T14:03:42;5.38;;;3.72;;
23159;SDS011;11748;50.844;4.396;2024-02-14T14:06:08;9.98;;;4.50;;
23159;SDS011;11748;50.844;4.396;2024-02-14T14:08:34;8.02;;;4.05;;
23159;SDS011;11748;50.844;4.396;2024-02-14T14:11:03;7.82;;;3.78;;
23159;SDS011;11748;50.844;4.396;2024-02-14T14:13:29;7.13;;;3.70;;
23159;SDS011;11748;50.844;4.396;2024-02-14T14:16:01;5.75;;;4.50;;
23159;SDS011;11748;50.844;4.396;2024-02-14T14:18:30;6.00;;;4.15;;
23159;SDS011;11748;50.844;4.396;2024-02-14T14:20:55;5.72;;;3.50;;
23159;SDS011;11748;50.844;4.396;2024-02-14T14:23:21;5.55;;;3.38;;
23159;SDS011;11748;50.844;4.396;2024-02-14T14:25:47;5.82;;;3.70;;
23159;SDS011;11748;50.844;4.396;2024-02-14T14:28:12;9.93;;;3.90;;
23159;SDS011;11748;50.844;4.396;2024-02-14T14:30:39;6.10;;;3.60;;
23159;SDS011;11748;50.844;4.396;2024-02-14T14:33:05;8.95;;;5.25;;
23159;SDS011;11748;50.844;4.396;2024-02-14T14:35:34;6.78;;;3.38;;
23159;SDS011;11748;50.844;4.396;2024-02-14T14:38:01;3.60;;;2.70;;
23159;SDS011;11748;50.844;4.396;2024-02-14T14:40:31;4.97;;;3.05;;